createdAt,value
2018-10-17T00:00:18.752Z,11.30
2018-10-17T00:02:47.512Z,9.57
2018-10-17T00:05:16.111Z,9.77
2018-10-17T00:07:45.174Z,9.57
2018-10-17T00:10:13.943Z,9.30
2018-10-17T00:12:42.547Z,10.70
2018-10-17T00:15:11.425Z,9.77
2018-10-17T00:17:40.135Z,10.10
2018-10-17T00:20:09.820Z,10.17
2018-10-17T00:22:38.496Z,10.20
2018-10-17T00:25:07.927Z,10.63
2018-10-17T00:27:36.648Z,10.30
2018-10-17T00:30:07.203Z,10.63
2018-10-17T00:32:35.916Z,9.97
2018-10-17T00:35:04.574Z,12.20
2018-10-17T00:37:33.244Z,9.87
2018-10-17T00:40:01.868Z,11.80
2018-10-17T00:42:30.508Z,10.10
2018-10-17T00:44:59.199Z,10.37
2018-10-17T00:47:27.811Z,11.27
2018-10-17T00:49:56.583Z,10.50
2018-10-17T00:52:25.267Z,9.40
2018-10-17T00:54:53.890Z,11.57
2018-10-17T00:57:22.428Z,10.90
2018-10-17T00:59:51.116Z,10.27
2018-10-17T01:02:19.698Z,11.10
2018-10-17T01:04:48.286Z,9.90
2018-10-17T01:07:17.024Z,9.90
2018-10-17T01:09:45.736Z,10.90
2018-10-17T01:12:14.340Z,9.80
2018-10-17T01:14:43.008Z,11.93
2018-10-17T01:17:11.601Z,9.90
2018-10-17T01:19:40.209Z,9.83
2018-10-17T01:22:08.978Z,10.67
2018-10-17T01:24:37.567Z,11.47
2018-10-17T01:27:06.232Z,11.53
2018-10-17T01:29:35.212Z,11.65
2018-10-17T01:32:03.884Z,10.90
2018-10-17T01:34:32.604Z,10.98
2018-10-17T01:37:01.268Z,10.58
2018-10-17T01:39:29.851Z,9.50
2018-10-17T01:41:58.431Z,10.32
2018-10-17T01:44:27.359Z,10.30
2018-10-17T01:46:56.005Z,10.70
2018-10-17T01:49:24.952Z,11.12
2018-10-17T01:51:53.618Z,10.70
2018-10-17T01:54:22.224Z,10.50
2018-10-17T01:56:50.799Z,11.63
2018-10-17T01:59:19.429Z,10.97
2018-10-17T02:01:48.044Z,11.83
2018-10-17T02:04:16.764Z,12.10
2018-10-17T02:06:45.505Z,11.22
2018-10-17T02:09:14.129Z,10.70
2018-10-17T02:11:42.740Z,11.28
2018-10-17T02:14:11.443Z,12.23
2018-10-17T02:16:40.065Z,10.28
2018-10-17T02:19:08.734Z,10.70
2018-10-17T02:21:37.410Z,11.65
2018-10-17T02:24:06.864Z,10.88
2018-10-17T02:26:35.468Z,11.90
2018-10-17T02:29:04.236Z,11.43
2018-10-17T02:31:32.737Z,10.48
2018-10-17T02:34:01.508Z,9.90
2018-10-17T02:36:30.253Z,12.00
2018-10-17T02:38:58.840Z,11.60
2018-10-17T02:41:27.957Z,11.08
2018-10-17T02:43:56.709Z,12.43
2018-10-17T02:46:25.299Z,10.55
2018-10-17T02:48:53.918Z,12.07
2018-10-17T02:51:22.738Z,10.50
2018-10-17T02:53:51.331Z,10.65
2018-10-17T02:56:19.933Z,10.93
2018-10-17T02:58:48.570Z,11.68
2018-10-17T03:01:17.258Z,11.95
2018-10-17T03:03:45.767Z,11.80
2018-10-17T03:06:14.547Z,9.95
2018-10-17T03:08:43.148Z,10.18
2018-10-17T03:11:11.853Z,10.25
2018-10-17T03:13:40.455Z,9.85
2018-10-17T03:16:09.047Z,12.30
2018-10-17T03:18:37.643Z,11.90
2018-10-17T03:21:06.290Z,9.73
2018-10-17T03:23:34.910Z,10.98
2018-10-17T03:26:03.490Z,11.15
2018-10-17T03:28:32.207Z,10.60
2018-10-17T03:31:00.797Z,10.48
2018-10-17T03:33:29.399Z,12.25
2018-10-17T03:35:58.515Z,10.13
2018-10-17T03:38:27.060Z,10.58
2018-10-17T03:40:55.695Z,11.80
2018-10-17T03:43:24.368Z,11.20
2018-10-17T03:45:52.956Z,10.85
2018-10-17T03:48:21.524Z,10.65
2018-10-17T03:50:50.552Z,9.85
2018-10-17T03:53:19.233Z,11.35
2018-10-17T03:55:47.764Z,11.65
2018-10-17T03:58:16.405Z,11.08
2018-10-17T04:00:45.045Z,11.68
2018-10-17T04:03:13.709Z,10.82
2018-10-17T04:05:42.388Z,11.08
2018-10-17T04:08:11.025Z,11.12
2018-10-17T04:10:39.672Z,10.88
2018-10-17T04:13:08.468Z,11.68
2018-10-17T04:15:37.044Z,11.75
2018-10-17T04:18:05.728Z,11.00
2018-10-17T04:20:34.551Z,12.55
2018-10-17T04:23:03.420Z,11.65
2018-10-17T04:25:32.004Z,11.50
2018-10-17T04:28:00.646Z,12.50
2018-10-17T04:30:29.243Z,11.53
2018-10-17T04:32:57.828Z,11.25
2018-10-17T04:35:26.513Z,12.18
2018-10-17T04:37:55.155Z,11.12
2018-10-17T04:40:23.728Z,11.85
2018-10-17T04:42:52.352Z,10.53
2018-10-17T04:45:20.955Z,10.50
2018-10-17T04:47:49.704Z,11.25
2018-10-17T04:50:18.325Z,11.53
2018-10-17T04:52:47.407Z,10.30
2018-10-17T04:55:16.025Z,12.65
2018-10-17T04:57:44.608Z,12.50
2018-10-17T05:00:13.843Z,11.45
2018-10-17T05:02:43.732Z,11.10
2018-10-17T05:05:13.112Z,10.65
2018-10-17T05:07:41.745Z,11.22
2018-10-17T05:10:10.357Z,9.60
2018-10-17T05:12:38.970Z,11.63
2018-10-17T05:15:07.754Z,11.43
2018-10-17T05:17:36.448Z,11.70
2018-10-17T05:20:05.648Z,10.82
2018-10-17T05:22:34.228Z,10.68
2018-10-17T05:25:02.873Z,12.05
2018-10-17T05:27:31.579Z,12.37
2018-10-17T05:30:00.181Z,11.53
2018-10-17T05:32:28.863Z,9.58
2018-10-17T05:34:57.490Z,11.18
2018-10-17T05:37:26.108Z,10.38
2018-10-17T05:39:54.768Z,10.63
2018-10-17T05:42:23.516Z,10.43
2018-10-17T05:44:52.089Z,11.40
2018-10-17T05:47:20.748Z,10.38
2018-10-17T05:49:49.336Z,12.10
2018-10-17T05:52:17.895Z,12.30
2018-10-17T05:54:46.924Z,10.30
2018-10-17T05:57:15.484Z,11.83
2018-10-17T05:59:44.064Z,11.83
2018-10-17T06:02:16.580Z,10.95
2018-10-17T06:04:45.655Z,12.70
2018-10-17T06:07:14.757Z,10.25
2018-10-17T06:09:45.146Z,11.80
2018-10-17T06:12:16.307Z,11.03
2018-10-17T06:14:46.616Z,11.57
2018-10-17T06:17:15.972Z,11.03
2018-10-17T06:19:46.291Z,11.15
2018-10-17T06:22:15.228Z,11.97
2018-10-17T06:24:45.433Z,11.88
2018-10-17T06:27:15.575Z,12.70
2018-10-17T06:29:46.276Z,10.53
2018-10-17T06:32:15.895Z,12.05
2018-10-17T06:34:46.201Z,12.75
2018-10-17T06:37:16.141Z,12.85
2018-10-17T06:39:46.579Z,10.88
2018-10-17T06:42:17.035Z,11.18
2018-10-17T06:44:47.103Z,11.63
2018-10-17T06:47:17.406Z,11.05
2018-10-17T06:49:48.655Z,10.82
2018-10-17T06:52:18.031Z,12.07
2018-10-17T06:54:49.629Z,11.97
2018-10-17T06:57:18.736Z,11.30
2018-10-17T06:59:49.766Z,11.25
2018-10-17T07:02:19.734Z,12.20
2018-10-17T07:04:50.730Z,12.68
2018-10-17T07:07:19.476Z,13.20
2018-10-17T07:09:50.679Z,11.53
2018-10-17T07:12:19.269Z,11.67
2018-10-17T07:14:49.024Z,11.20
2018-10-17T07:17:18.325Z,10.73
2018-10-17T07:19:49.286Z,11.60
2018-10-17T07:22:19.644Z,10.60
2018-10-17T07:24:50.177Z,11.07
2018-10-17T07:27:18.771Z,11.87
2018-10-17T07:29:47.561Z,12.93
2018-10-17T07:32:15.944Z,11.90
2018-10-17T07:34:44.539Z,11.43
2018-10-17T07:37:13.109Z,12.30
2018-10-17T07:39:41.672Z,11.67
2018-10-17T07:42:10.331Z,11.50
2018-10-17T07:44:38.935Z,12.30
2018-10-17T07:47:07.533Z,13.60
2018-10-17T07:49:36.238Z,11.57
2018-10-17T07:52:05.472Z,12.10
2018-10-17T07:54:34.073Z,12.27
2018-10-17T07:57:03.192Z,15.23
2018-10-17T07:59:31.829Z,14.20
2018-10-17T08:02:00.363Z,11.73
2018-10-17T08:04:29.047Z,12.40
2018-10-17T08:06:57.627Z,12.00
2018-10-17T08:09:26.196Z,14.20
2018-10-17T08:11:54.868Z,13.20
2018-10-17T08:14:23.404Z,12.33
2018-10-17T08:16:51.985Z,11.63
2018-10-17T08:19:20.683Z,11.03
2018-10-17T08:21:49.271Z,13.83
2018-10-17T08:24:17.994Z,13.00
2018-10-17T08:26:46.561Z,12.77
2018-10-17T08:29:15.782Z,13.47
2018-10-17T08:31:44.415Z,13.60
2018-10-17T08:34:13.047Z,12.97
2018-10-17T08:36:41.782Z,13.20
2018-10-17T08:39:11.137Z,14.13
2018-10-17T08:41:39.764Z,14.30
2018-10-17T08:44:08.384Z,13.50
2018-10-17T08:46:36.975Z,15.30
2018-10-17T08:49:05.979Z,13.67
2018-10-17T08:51:34.548Z,13.50
2018-10-17T08:54:03.564Z,12.93
2018-10-17T08:56:32.180Z,13.20
2018-10-17T08:59:00.771Z,14.23
2018-10-17T09:01:29.373Z,14.33
2018-10-17T09:03:58.009Z,13.40
2018-10-17T09:06:26.620Z,13.60
2018-10-17T09:08:55.200Z,13.03
2018-10-17T09:11:23.829Z,12.80
2018-10-17T09:13:52.468Z,13.67
2018-10-17T09:16:21.062Z,13.67
2018-10-17T09:18:49.686Z,13.50
2018-10-17T09:21:18.683Z,12.43
2018-10-17T09:23:46.844Z,14.10
2018-10-17T09:26:15.547Z,13.53
2018-10-17T09:28:44.112Z,13.10
2018-10-17T09:31:12.681Z,13.13
2018-10-17T09:33:41.358Z,12.60
2018-10-17T09:36:09.947Z,14.60
2018-10-17T09:38:38.508Z,14.10
2018-10-17T09:41:07.268Z,13.40
2018-10-17T09:43:35.852Z,12.70
2018-10-17T09:46:04.870Z,16.30
2018-10-17T09:48:33.488Z,13.83
2018-10-17T09:51:02.072Z,13.90
2018-10-17T09:53:30.898Z,15.27
2018-10-17T09:55:59.419Z,14.30
2018-10-17T09:58:28.000Z,13.00
2018-10-17T10:01:01.852Z,13.53
2018-10-17T10:03:30.450Z,14.57
2018-10-17T10:05:59.014Z,12.20
2018-10-17T10:08:27.599Z,13.60
2018-10-17T10:10:56.207Z,13.13
2018-10-17T10:13:24.771Z,11.87
2018-10-17T10:15:53.560Z,12.53
2018-10-17T10:18:22.068Z,13.27
2018-10-17T10:20:50.676Z,10.00
2018-10-17T10:23:19.336Z,10.77
2018-10-17T10:25:47.905Z,11.50
2018-10-17T10:28:16.591Z,12.13
2018-10-17T10:30:45.179Z,11.10
2018-10-17T10:33:13.783Z,11.43
2018-10-17T10:35:42.360Z,11.70
2018-10-17T10:38:11.109Z,11.17
2018-10-17T10:40:39.762Z,10.60
2018-10-17T10:43:08.690Z,11.33
2018-10-17T10:45:37.465Z,11.13
2018-10-17T10:48:06.053Z,11.60
2018-10-17T10:50:34.804Z,10.43
2018-10-17T10:53:03.526Z,12.20
2018-10-17T10:55:32.110Z,11.10
2018-10-17T10:58:00.737Z,12.13
2018-10-17T11:00:29.296Z,10.50
2018-10-17T11:02:57.928Z,10.90
2018-10-17T11:05:26.606Z,10.87
2018-10-17T11:07:55.224Z,10.37
2018-10-17T11:10:23.740Z,9.70
2018-10-17T11:12:52.315Z,11.67
2018-10-17T11:15:21.042Z,10.77
2018-10-17T11:17:49.579Z,8.53
2018-10-17T11:20:18.156Z,10.50
2018-10-17T11:22:47.113Z,9.97
2018-10-17T11:25:15.695Z,8.23
2018-10-17T11:27:44.304Z,8.73
2018-10-17T11:30:13.004Z,10.37
2018-10-17T11:32:41.587Z,9.97
2018-10-17T11:35:11.374Z,9.60
2018-10-17T11:37:39.936Z,9.63
2018-10-17T11:40:09.357Z,9.00
2018-10-17T11:42:37.944Z,7.47
2018-10-17T11:45:07.188Z,8.33
2018-10-17T11:47:35.968Z,7.70
2018-10-17T11:50:05.748Z,7.83
2018-10-17T11:52:34.387Z,6.87
2018-10-17T11:55:02.999Z,9.03
2018-10-17T11:57:31.910Z,8.33
2018-10-17T12:00:00.659Z,7.60
2018-10-17T12:02:29.283Z,7.90
2018-10-17T12:04:58.097Z,8.00
2018-10-17T12:07:26.619Z,8.20
2018-10-17T12:09:55.208Z,7.47
2018-10-17T12:12:23.917Z,7.77
2018-10-17T12:14:52.406Z,8.47
2018-10-17T12:17:21.005Z,7.37
2018-10-17T12:19:49.590Z,8.93
2018-10-17T12:22:18.266Z,6.83
2018-10-17T12:24:46.884Z,6.97
2018-10-17T12:27:15.513Z,6.17
2018-10-17T12:29:44.184Z,6.60
2018-10-17T12:32:12.740Z,7.17
2018-10-17T12:34:41.300Z,7.20
2018-10-17T12:37:09.992Z,7.67
2018-10-17T12:39:38.578Z,6.97
2018-10-17T12:42:07.146Z,7.20
2018-10-17T12:44:35.844Z,7.33
2018-10-17T12:47:04.484Z,7.20
2018-10-17T12:49:33.094Z,6.20
2018-10-17T12:52:01.809Z,6.13
2018-10-17T12:54:30.380Z,6.67
2018-10-17T12:56:59.037Z,6.40
2018-10-17T12:59:28.035Z,7.53
2018-10-17T13:01:56.640Z,6.53
2018-10-17T13:04:25.232Z,5.80
2018-10-17T13:06:53.984Z,6.30
2018-10-17T13:09:22.605Z,6.53
2018-10-17T13:11:51.188Z,5.03
2018-10-17T13:14:20.260Z,5.60
2018-10-17T13:16:48.852Z,4.70
2018-10-17T13:19:17.524Z,6.37
2018-10-17T13:21:46.208Z,5.77
2018-10-17T13:24:14.783Z,6.90
2018-10-17T13:26:43.380Z,6.50
2018-10-17T13:29:12.048Z,5.83
2018-10-17T13:31:40.604Z,5.30
2018-10-17T13:34:09.253Z,5.87
2018-10-17T13:36:37.959Z,6.17
2018-10-17T13:39:10.200Z,5.30
2018-10-17T13:41:38.832Z,5.57
2018-10-17T13:44:08.424Z,5.80
2018-10-17T13:46:37.047Z,6.00
2018-10-17T13:49:06.042Z,5.97
2018-10-17T13:51:34.577Z,6.53
2018-10-17T13:54:03.163Z,5.73
2018-10-17T13:56:32.128Z,4.80
2018-10-17T13:59:00.779Z,5.10
2018-10-17T14:01:29.384Z,5.03
2018-10-17T14:03:57.982Z,6.17
2018-10-17T14:06:26.612Z,5.83
2018-10-17T14:08:55.234Z,5.70
2018-10-17T14:11:23.843Z,4.43
2018-10-17T14:13:52.410Z,4.87
2018-10-17T14:16:21.003Z,5.50
2018-10-17T14:18:49.732Z,5.50
2018-10-17T14:21:18.391Z,4.50
2018-10-17T14:23:46.983Z,5.30
2018-10-17T14:26:15.704Z,5.03
2018-10-17T14:28:44.284Z,5.40
2018-10-17T14:31:12.875Z,5.47
2018-10-17T14:33:41.556Z,4.93
2018-10-17T14:36:10.221Z,5.33
2018-10-17T14:38:38.834Z,4.77
2018-10-17T14:41:07.577Z,5.20
2018-10-17T14:43:36.183Z,5.17
2018-10-17T14:46:05.079Z,5.40
2018-10-17T14:48:33.717Z,6.10
2018-10-17T14:51:02.329Z,6.10
2018-10-17T14:53:30.930Z,4.90
2018-10-17T14:55:59.719Z,5.93
2018-10-17T14:58:28.341Z,5.50
2018-10-17T15:00:56.927Z,6.67
2018-10-17T15:03:25.613Z,6.20
2018-10-17T15:05:54.408Z,5.17
2018-10-17T15:08:22.985Z,5.27
2018-10-17T15:10:51.921Z,5.93
2018-10-17T15:13:20.240Z,6.10
2018-10-17T15:15:48.840Z,6.03
2018-10-17T15:18:17.976Z,6.17
2018-10-17T15:20:46.565Z,6.00
2018-10-17T15:23:15.157Z,5.43
2018-10-17T15:25:44.147Z,5.87
2018-10-17T15:28:12.727Z,6.20
2018-10-17T15:30:41.316Z,5.93
2018-10-17T15:33:10.032Z,5.40
2018-10-17T15:35:38.536Z,5.30
2018-10-17T15:38:07.108Z,6.30
2018-10-17T15:40:34.657Z,5.67
2018-10-17T15:43:03.553Z,6.27
2018-10-17T15:45:32.292Z,6.03
2018-10-17T15:48:00.999Z,5.70
2018-10-17T15:50:29.538Z,6.17
2018-10-17T15:52:58.125Z,7.03
2018-10-17T15:55:26.842Z,6.30
2018-10-17T15:57:55.564Z,7.13
2018-10-17T16:00:24.140Z,6.60
2018-10-17T16:02:52.868Z,6.90
2018-10-17T16:05:21.440Z,7.50
2018-10-17T16:07:50.036Z,6.47
2018-10-17T16:10:18.712Z,7.00
2018-10-17T16:12:47.304Z,7.57
2018-10-17T16:15:15.876Z,7.63
2018-10-17T16:17:44.908Z,7.70
2018-10-17T16:20:13.808Z,8.43
2018-10-17T16:22:42.750Z,7.67
2018-10-17T16:25:11.381Z,7.70
2018-10-17T16:27:39.959Z,7.70
2018-10-17T16:30:10.854Z,6.90
2018-10-17T16:32:39.427Z,8.00
2018-10-17T16:35:08.593Z,7.80
2018-10-17T16:37:38.024Z,7.80
2018-10-17T16:40:08.184Z,7.30
2018-10-17T16:42:36.763Z,7.47
2018-10-17T16:45:06.332Z,7.57
2018-10-17T16:47:35.081Z,9.10
2018-10-17T16:50:03.710Z,9.53
2018-10-17T16:52:32.256Z,8.10
2018-10-17T16:55:00.897Z,9.57
2018-10-17T16:57:29.536Z,11.40
2018-10-17T16:59:58.514Z,11.53
2018-10-17T17:02:27.093Z,10.90
2018-10-17T17:04:55.664Z,11.47
2018-10-17T17:07:24.456Z,11.83
2018-10-17T17:09:53.031Z,10.30
2018-10-17T17:12:21.620Z,12.40
2018-10-17T17:14:50.644Z,13.10
2018-10-17T17:17:19.340Z,13.33
2018-10-17T17:19:48.811Z,10.97
2018-10-17T17:22:17.541Z,11.47
2018-10-17T17:24:46.196Z,11.43
2018-10-17T17:27:15.858Z,11.03
2018-10-17T17:29:45.026Z,12.03
2018-10-17T17:32:13.952Z,10.73
2018-10-17T17:34:42.588Z,10.63
2018-10-17T17:37:11.232Z,10.77
2018-10-17T17:39:39.799Z,11.10
2018-10-17T17:42:08.673Z,10.67
2018-10-17T17:44:37.306Z,9.40
2018-10-17T17:47:06.933Z,10.50
2018-10-17T17:49:35.504Z,11.20
2018-10-17T17:52:04.152Z,10.87
2018-10-17T17:54:32.712Z,10.20
2018-10-17T17:57:01.305Z,9.10
2018-10-17T17:59:29.951Z,8.47
2018-10-17T18:01:58.527Z,13.00
2018-10-17T18:04:27.185Z,8.73
2018-10-17T18:06:55.719Z,10.10
2018-10-17T18:09:24.308Z,9.30
2018-10-17T18:11:52.887Z,10.03
2018-10-17T18:14:21.592Z,9.10
2018-10-17T18:16:50.079Z,9.77
2018-10-17T18:19:18.640Z,9.10
2018-10-17T18:21:47.280Z,9.67
2018-10-17T18:24:15.864Z,10.03
2018-10-17T18:26:44.443Z,8.70
2018-10-17T18:29:13.391Z,9.23
2018-10-17T18:31:41.955Z,8.73
2018-10-17T18:34:10.603Z,9.57
2018-10-17T18:36:39.215Z,10.37
2018-10-17T18:39:08.700Z,11.03
2018-10-17T18:41:37.295Z,9.50
2018-10-17T18:44:06.052Z,9.77
2018-10-17T18:46:34.724Z,10.67
2018-10-17T18:49:03.291Z,12.67
2018-10-17T18:51:31.908Z,10.07
2018-10-17T18:54:01.072Z,11.10
2018-10-17T18:56:29.739Z,10.80
2018-10-17T18:58:58.660Z,10.47
2018-10-17T19:01:27.316Z,10.83
2018-10-17T19:03:55.881Z,11.00
2018-10-17T19:06:24.576Z,9.60
2018-10-17T19:08:53.187Z,9.80
2018-10-17T19:11:21.754Z,9.47
2018-10-17T19:13:50.419Z,9.83
2018-10-17T19:16:19.049Z,10.60
2018-10-17T19:18:47.607Z,10.80
2018-10-17T19:21:16.335Z,14.97
2018-10-17T19:23:44.861Z,12.00
2018-10-17T19:26:13.466Z,14.00
2018-10-17T19:28:42.083Z,12.60
2018-10-17T19:31:10.664Z,13.70
2018-10-17T19:33:39.243Z,12.50
2018-10-17T19:36:07.940Z,11.70
2018-10-17T19:38:36.443Z,11.27
2018-10-17T19:41:05.243Z,10.70
2018-10-17T19:43:34.103Z,11.53
2018-10-17T19:46:02.668Z,12.17
2018-10-17T19:48:31.252Z,11.20
2018-10-17T19:50:59.866Z,12.47
2018-10-17T19:53:28.455Z,11.20
2018-10-17T19:55:57.153Z,12.50
2018-10-17T19:58:25.692Z,13.03
2018-10-17T20:00:54.292Z,13.17
2018-10-17T20:03:22.860Z,12.43
2018-10-17T20:05:51.547Z,12.60
2018-10-17T20:08:20.131Z,13.83
2018-10-17T20:10:48.722Z,14.30
2018-10-17T20:13:17.428Z,12.50
2018-10-17T20:15:46.044Z,10.60
2018-10-17T20:18:14.619Z,10.07
2018-10-17T20:20:43.448Z,12.33
2018-10-17T20:23:12.023Z,11.23
2018-10-17T20:25:40.588Z,10.57
2018-10-17T20:28:09.267Z,10.43
2018-10-17T20:30:37.840Z,10.53
2018-10-17T20:33:06.607Z,12.40
2018-10-17T20:35:35.160Z,10.87
2018-10-17T20:38:03.727Z,12.95
2018-10-17T20:40:32.299Z,13.20
2018-10-17T20:43:01.091Z,12.80
2018-10-17T20:45:29.715Z,11.53
2018-10-17T20:47:58.336Z,11.60
2018-10-17T20:50:27.984Z,10.80
2018-10-17T20:52:56.729Z,11.00
2018-10-17T20:55:25.455Z,12.00
2018-10-17T20:57:54.080Z,9.83
2018-10-17T21:00:22.791Z,11.00
2018-10-17T21:02:51.387Z,11.30
2018-10-17T21:05:19.987Z,11.27
2018-10-17T21:07:48.580Z,10.07
2018-10-17T21:10:17.185Z,11.17
2018-10-17T21:12:45.892Z,10.07
2018-10-17T21:15:14.512Z,10.70
2018-10-17T21:17:43.356Z,11.10
2018-10-17T21:20:13.484Z,9.30
2018-10-17T21:22:48.310Z,11.80
2018-10-17T21:25:18.697Z,11.40
2018-10-17T21:27:47.399Z,10.97
2018-10-17T21:30:16.024Z,10.27
2018-10-17T21:32:44.832Z,9.97
2018-10-17T21:35:13.488Z,11.53
2018-10-17T21:37:42.114Z,10.63
2018-10-17T21:40:10.865Z,10.70
2018-10-17T21:42:39.692Z,11.80
2018-10-17T21:45:08.315Z,12.20
2018-10-17T21:47:36.943Z,9.63
2018-10-17T21:50:06.014Z,11.57
2018-10-17T21:52:34.562Z,12.10
2018-10-17T21:55:03.183Z,10.23
2018-10-17T21:57:32.003Z,11.77
2018-10-17T22:00:00.596Z,12.27
2018-10-17T22:02:29.332Z,10.97
2018-10-17T22:04:57.920Z,10.90
2018-10-17T22:07:26.491Z,12.07
2018-10-17T22:09:55.293Z,10.97
2018-10-17T22:12:23.863Z,11.00
2018-10-17T22:14:52.503Z,10.90
2018-10-17T22:17:26.231Z,10.70
2018-10-17T22:19:54.922Z,9.77
2018-10-17T22:22:23.660Z,12.60
2018-10-17T22:24:52.743Z,10.90
2018-10-17T22:27:21.711Z,11.20
2018-10-17T22:29:50.402Z,10.37
2018-10-17T22:32:19.096Z,10.30
2018-10-17T22:34:47.705Z,11.57
2018-10-17T22:37:16.327Z,10.93
2018-10-17T22:39:45.184Z,11.50
2018-10-17T22:42:13.773Z,10.30
2018-10-17T22:44:42.393Z,11.30
2018-10-17T22:47:11.155Z,11.80
2018-10-17T22:49:39.748Z,12.50
2018-10-17T22:52:08.331Z,12.10
2018-10-17T22:54:37.015Z,12.50
2018-10-17T22:57:05.656Z,11.37
2018-10-17T22:59:34.244Z,11.20
2018-10-17T23:02:03.024Z,11.93
2018-10-17T23:04:31.559Z,11.87
2018-10-17T23:07:00.167Z,12.30
2018-10-17T23:09:28.823Z,11.27
2018-10-17T23:11:57.428Z,11.27
2018-10-17T23:14:26.020Z,12.70
2018-10-17T23:16:54.736Z,11.87
2018-10-17T23:19:23.360Z,12.13
2018-10-17T23:21:52.167Z,11.20
2018-10-17T23:24:20.792Z,12.00
2018-10-17T23:26:49.416Z,11.80
2018-10-17T23:29:18.028Z,12.50
2018-10-17T23:31:46.675Z,11.37
2018-10-17T23:34:15.264Z,11.40
2018-10-17T23:36:43.875Z,11.30
2018-10-17T23:39:12.568Z,12.50
2018-10-17T23:41:41.411Z,11.13
2018-10-17T23:44:10.072Z,11.97
2018-10-17T23:46:38.995Z,12.13
2018-10-17T23:49:07.575Z,12.00
2018-10-17T23:51:36.358Z,11.20
2018-10-17T23:54:05.060Z,10.97
2018-10-17T23:56:33.601Z,12.80
2018-10-17T23:59:02.539Z,13.07
